logo
Games tagged Pirates
# Game Release date
Price
Score rank
(Userscore / Metascore)
Owners
Players
Playtime (Median)
Developer(s)
Publisher(s)
1 Return of the Obra Dinn Oct 18, 2018 $19.99N/A (N/A/89%)500,000 .. 1,000,0002.63%00:12 (00:04)Lucas Pope3909
2 The Curse of Monkey Island Oct 31, 1997 $6.99N/A (N/A/89%)100,000 .. 200,0000%00:00 (00:00)LucasArtsLucasArts, Lucasfilm, Disney
3 Pillars of Eternity II: Deadfire May 8, 2018 $39.99N/A (N/A/88%)500,000 .. 1,000,0001.67%14:23 (04:47)Obsidian EntertainmentVersus Evil, Obsidian Entertainment
4 Sid Meier's Pirates! Jul 11, 2005 $9.99N/A (N/A/88%)200,000 .. 500,0000%00:00 (00:00)Firaxis Games2K
5 Monkey Island 2 Special Edition: LeChuck’s Revenge Jul 7, 2010 $9.99N/A (N/A/87%)200,000 .. 500,0000%00:00 (00:00)LucasArtsLucasArts, Lucasfilm, Disney
6 Sins of a Solar Empire: Trinity Nov 16, 2011 $19.99N/A (N/A/87%)100,000 .. 200,0000%00:00 (00:00)Ironclad Games, Stardock EntertainmentStardock Entertainment
7 The Secret of Monkey Island: Special Edition Jul 15, 2009 $9.99N/A (N/A/86%)500,000 .. 1,000,0002.08%00:05 (00:01)LucasArtsLucasArts, Lucasfilm, Disney
8 Sins of a Solar Empire: Rebellion Jun 12, 2012 $39.99N/A (N/A/82%)2,000,000 .. 5,000,0000.58%07:35 (06:04)Ironclad Games, Stardock EntertainmentStardock Entertainment
9 Nelly Cootalot: The Fowl Fleet Mar 22, 2016 $19.99N/A (N/A/81%)20,000 .. 50,0000%00:00 (00:00)Alasdair Beckett-King, Application Systems HeidelbergApplication Systems Heidelberg
10 Nelly Cootalot: Spoonbeaks Ahoy! HD May 22, 2019 $1.99N/A (N/A/80%)20,000 .. 50,0000%00:00 (00:00)Alasdair Beckett-King, Application Systems HeidelbergApplication Systems Heidelberg
11 Hero-U: Rogue to Redemption Jul 10, 2018 $29.99N/A (N/A/80%)20,000 .. 50,0000%00:00 (00:00)Transolar GamesTransolar Games
12 Flinthook Apr 18, 2017 $14.99N/A (N/A/80%)100,000 .. 200,0000%00:00 (00:00)Tribute Games Inc.Tribute Games Inc.
13 ArcheAge Mar 26, 2015 FreeN/A (N/A/80%)1,000,000 .. 2,000,0000%00:00 (00:00)XLGAMESKakao Games Europe B.V.
14 Time Commando Jul 31, 1996 $5.99N/A (N/A/80%)500,000 .. 1,000,0000%00:00 (00:00)[2.21][2.21]
15 Pirates Outlaws Apr 13, 2020 $19.99N/A (N/A/79%)20,000 .. 50,0000%00:00 (00:00)Fabled GameFabled Game
16 Tales of Monkey Island: Complete Season Jul 7, 2009 $14.99N/A (N/A/79%)200,000 .. 500,0000%00:00 (00:00)TelltaleTelltale
17 Gothic II: Gold Edition Nov 29, 2005 $9.99N/A (N/A/79%)500,000 .. 1,000,0000%00:00 (00:00)Piranha BytesTHQ Nordic
18 Port Royale 2 Jun 16, 2009 $4.99N/A (N/A/75%)50,000 .. 100,0000%00:00 (00:00)Ascaron Entertainment ltd.Strategy First
19 Nantucket Jan 18, 2018 $17.99N/A (N/A/74%)50,000 .. 100,0000%00:00 (00:00)Picaresque StudioFish Eagle
20 Assassin’s Creed Rogue Mar 9, 2015 $19.99N/A (N/A/74%)1,000,000 .. 2,000,0001.3%20:54 (06:58)Ubisoft Sofia, Ubisoft KievUbisoft
21 Space Pirates and Zombies Aug 15, 2011 $9.99N/A (N/A/74%)500,000 .. 1,000,0000%00:00 (00:00)MinMax Games Ltd.MinMax Games Ltd.
22 AirBuccaneers Nov 12, 1985 N/AN/A (N/A/74%)100,000 .. 200,0000%00:00 (00:00)LudoCraft Ltd.LudoCraft Ltd.
23 Willy Morgan and the Curse of Bone Town Aug 11, 2020 $19.99N/A (N/A/71%)0 .. 20,0000%00:00 (00:00)imaginarylabLeonardo Interactive, WhisperGames
24 Sea Dogs Jan 14, 2018 $11.99N/A (N/A/71%)50,000 .. 100,0000%00:00 (00:00)AkellaAkella
25 Jolly Rover Jun 7, 2010 $9.99N/A (N/A/71%)100,000 .. 200,0000%00:00 (00:00)BrawsomeBrawsome
26 Battlewake Sep 10, 2019 $29.99N/A (N/A/70%)0 .. 20,0000%00:00 (00:00)SurviosSurvios
27 Here Be Dragons Jan 30, 2020 $2.99N/A (N/A/69%)0 .. 20,0000%00:00 (00:00)Red Zero GamesPansolo
28 Risen 2: Dark Waters Apr 26, 2012 $9.99N/A (N/A/69%)1,000,000 .. 2,000,0000%00:00 (00:00)Piranha BytesTHQ Nordic
29 Port Royale 4 Sep 25, 2020 $39.99N/A (N/A/68%)50,000 .. 100,0000%00:00 (00:00)Gaming MindsKalypso Media
30 Commander: Conquest of the Americas Jul 30, 2010 $9.99N/A (N/A/68%)50,000 .. 100,0000%00:00 (00:00)Nitro GamesNitro Games
31 East India Company Jul 31, 2009 $9.99N/A (N/A/67%)50,000 .. 100,0000%00:00 (00:00)Nitro GamesNitro Games
32 Ghost Pirates of Vooju Island Jan 27, 2015 $9.99N/A (N/A/66%)20,000 .. 50,0000%00:00 (00:00)Autumn MoonViva Media
33 Risen 3 - Titan Lords Aug 12, 2014 $14.99N/A (N/A/65%)500,000 .. 1,000,0000%00:00 (00:00)Piranha BytesTHQ Nordic
34 The Guild II - Pirates of the European Seas May 18, 2007 $9.99N/A (N/A/63%)100,000 .. 200,0000%00:00 (00:00)4HEAD StudiosTHQ Nordic
35 Windward May 12, 2015 $9.99N/A (N/A/61%)200,000 .. 500,0000%00:00 (00:00)Tasharen Entertainment Inc.Tasharen Entertainment Inc.
36 Tempest: Pirate Action RPG Aug 22, 2016 $14.99N/A (N/A/60%)100,000 .. 200,0000%00:00 (00:00)HeroCraftHeroCraft PC
37 Pirates of Black Cove Aug 2, 2011 $9.99N/A (N/A/56%)50,000 .. 100,0000%00:00 (00:00)Nitro Games
38 Save the Pirate: Sea Story Feb 25, 2021 FreeN/A (N/A)0 .. 20,0000%00:00 (00:00)MaurisMauris
39 Batterneers Dec 1, 2020 FreeN/A (N/A)0 .. 20,0000%00:00 (00:00)Batterneers DevBatterneers Dev
40 Tribal Wars Nov 12, 2020 FreeN/A (N/A)100,000 .. 200,0000%00:00 (00:00)InnoGamesInnoGames
41 Chaos Combat Chess Oct 20, 2020 N/AN/A (N/A)20,000 .. 50,0000%00:00 (00:00)This Game StudioRogue Games, Inc.
42 Turtle's Quest Aug 26, 2020 FreeN/A (N/A)20,000 .. 50,0000%00:00 (00:00)Kid's RevoltKid's Revolt
43 Penny's Path Jul 24, 2020 FreeN/A (N/A)0 .. 20,0000%00:00 (00:00)Strategic Thinking LLCStrategic Thinking LLC
44 Maelstrom Sep 20, 2019 FreeN/A (N/A)200,000 .. 500,0000%00:00 (00:00)Gunpowder Games, Inc.Double Jump Publishing
45 Dandy & Randy Sep 2, 2019 N/AN/A (N/A)0 .. 20,0000%00:00 (00:00)Asteristic Game StudioAsteristic Game Studio
46 Uncharted Waters Online Dec 19, 2018 FreeN/A (N/A)50,000 .. 100,0000%00:00 (00:00)KOEI TECMO GAMES CO., LTD.Papaya Play
47 Puzzle Plunder Oct 9, 2018 FreeN/A (N/A)20,000 .. 50,0000%00:00 (00:00)WindybeardWindybeard
48 Unearned Bounty Aug 22, 2018 FreeN/A (N/A)100,000 .. 200,0000%00:00 (00:00)Extrokold GamesExtrokold Games
49 Crooked Waters Jul 13, 2018 FreeN/A (N/A)0 .. 20,0000%00:00 (00:00)Craft Game StudioCraft Game Studio
50 Puzzle Pirates: Dark Seas Jul 6, 2018 FreeN/A (N/A)100,000 .. 200,0000%00:00 (00:00)Grey HavensGrey Havens
51 The Pirates of Sector 7 Jun 1, 2018 FreeN/A (N/A)0 .. 20,0000%00:00 (00:00)Kneeling Bean StudiosLegacy Gameworks
52 League of Pirates Mar 13, 2018 N/AN/A (N/A)20,000 .. 50,0000%00:00 (00:00)upjersupjers
53 The Pirate: Plague of the Dead Oct 13, 2017 FreeN/A (N/A)100,000 .. 200,0000%00:00 (00:00)Home Net GamesHome Net Games
54 BATTLECREW Space Pirates Jul 10, 2017 FreeN/A (N/A)100,000 .. 200,0000%00:00 (00:00)DONTNOD ELEVENDONTNOD ELEVEN
55 Son Korsan May 30, 2017 FreeN/A (N/A)20,000 .. 50,0000%00:00 (00:00)Consala GamesConsala Games
56 Worlds Adrift May 24, 2017 N/AN/A (N/A)100,000 .. 200,0000%00:00 (00:00)Bossa StudiosBossa Studios
57 Man O' War: Corsair - Warhammer Naval Battles Apr 19, 2017 N/AN/A (N/A)20,000 .. 50,0000%00:00 (00:00)Evil Twin ArtworksEvil Twin Artworks
58 The Pirate: Caribbean Hunt Aug 24, 2016 FreeN/A (N/A)500,000 .. 1,000,0000%00:00 (00:00)Home Net GamesHome Net Games
59 Puzzle Pirates Aug 31, 2011 FreeN/A (N/A)200,000 .. 500,0000%00:00 (00:00)Grey HavensGrey Havens
60 Pirates, Vikings, and Knights II Feb 12, 2010 FreeN/A (N/A)1,000,000 .. 2,000,0000%00:00 (00:00)Octoshark StudiosOctoshark Studios
61 Age of Booty Mar 9, 2009 N/AN/A (N/A)20,000 .. 50,0000%00:00 (00:00)Certain Affinity™Capcom
62 Tradewinds Classics 1895 N/AN/A (N/A)0 .. 20,0000%00:00 (00:00)Sandlot GamesSandlot Games
63 Sid Meier's Pirates! Gold Plus (Classic) Jan 1, 1987 $6.99N/A (N/A)20,000 .. 50,0000%00:00 (00:00)MicroProse Software, IncRetroism, Nightdive Studios
64 BattleSteam Jul 31, 2022 FreeN/A (N/A)0 .. 20,0000%00:00 (00:00)3dcafe3dcafe
65 SugarWinds: Prologue Jan 27, 2022 FreeN/A (N/A)50,000 .. 100,0000%00:00 (00:00)Aatlantis CodeAatlantis Code
66 Pirate Story Mar 18, 2021 $1.99N/A (N/A)0 .. 20,0000%00:00 (00:00)Luci EntertainmentLuci Entertainment
67 boom faster Mar 15, 2021 $0.99N/A (N/A)20,000 .. 50,0000%00:00 (00:00)Crocodile and cactusCrocodile and cactus
68 Pirate Island Mar 13, 2021 $2.99N/A (N/A)0 .. 20,0000%00:00 (00:00)ImperiumGameImperiumGame
69 PIRATECRAFT Mar 12, 2021 $0.99N/A (N/A)0 .. 20,0000%00:00 (00:00)Game for gamesGame for games
70 Duel on Board Mar 4, 2021 $7.99N/A (N/A)0 .. 20,0000%00:00 (00:00)rebel rabbitindienova
71 Merchants of the Caribbean Mar 3, 2021 $6.99N/A (N/A)0 .. 20,0000%00:00 (00:00)GameOn ProductionAlawar Entertainment
72 Silent Sector Feb 17, 2021 $8.24N/A (N/A)0 .. 20,0000%00:00 (00:00)Rake in GrassRake in Grass
73 Pirate of Madagascar Island Feb 15, 2021 $4.99N/A (N/A)0 .. 20,0000%00:00 (00:00)Pranay MundaPranay Munda
74 Captains & Dungeons Feb 14, 2021 $4.99N/A (N/A)0 .. 20,0000%00:00 (00:00)Liprix GamesLiprix Games
75 Pinball Dec 29, 2020 $3.39N/A (N/A)0 .. 20,0000%00:00 (00:00)HubelHubel
76 Captain Pegleg Dec 27, 2020 $1.99N/A (N/A)0 .. 20,0000%00:00 (00:00)xeamxeam
77 Sink Again Dec 17, 2020 N/AN/A (N/A)20,000 .. 50,0000%00:00 (00:00)FlatcoonFlatcoon
78 Skycadia Dec 7, 2020 $9.99N/A (N/A)0 .. 20,0000%00:00 (00:00)Studio Nisse LLCStudio Nisse LLC
79 Frontiers Reach Nov 30, 2020 $19.99N/A (N/A)20,000 .. 50,0000%00:00 (00:00)Blind Alien ProductionsBlind Alien Productions
80 StoneTide: Age of Pirates Nov 27, 2020 $9.99N/A (N/A)0 .. 20,0000%00:00 (00:00)StoneTide EntertainmentStoneTide Entertainment
81 Captain Sabertooth and the Magic Diamond Nov 20, 2020 $34.99N/A (N/A)0 .. 20,0000%00:00 (00:00)Ravn Studio, Rock Pocket GamesZordix Publishing
82 Pocket Penguin DX ( ポケットペンギン): A Game Boy Style Adventure Nov 15, 2020 $5.99N/A (N/A)0 .. 20,0000%00:00 (00:00)Dog Biscuit StudiosDog Biscuit Studios
83 Be a Pirate Nov 9, 2020 $9.99N/A (N/A)0 .. 20,0000%00:00 (00:00)AmfichPiece Of Voxel
84 Blazing Sails Nov 5, 2020 $10.49N/A (N/A)100,000 .. 200,0000%00:00 (00:00)Get Up GamesIceberg Interactive
85 Out of Reach: Treasure Royale Oct 14, 2020 $14.99N/A (N/A)0 .. 20,0000%00:00 (00:00)Space Boat StudiosPlayWay S.A.
86 Sea Legends May 31, 1996 $6.99N/A (N/A)0 .. 20,0000%00:00 (00:00)Mir Dialogue, OceanZiggurat
87 A pirate quartermaster Oct 2, 2020 $17.99N/A (N/A)0 .. 20,0000%00:00 (00:00)Ivan ArmandyIvan Armandy
88 Path to Prosperity Sep 18, 2020 $14.99N/A (N/A)0 .. 20,0000%00:00 (00:00)Essence GamesEssence Games
89 Color Security Sep 6, 2020 FreeN/A (N/A)0 .. 20,0000%00:00 (00:00)TposeSoftwareTposeSoftware
90 Space Bar at the End of the Galaxy Aug 21, 2020 $4.99N/A (N/A)0 .. 20,0000%00:00 (00:00)Little Black Book EntertainmentLittle Black Book Entertainment
91 Poly Pirates Aug 15, 2020 $4.99N/A (N/A)0 .. 20,0000%00:00 (00:00)Daniel CrandallShroud Studios
92 Aye Aye, Captain Aug 4, 2020 $2.99N/A (N/A)0 .. 20,0000%00:00 (00:00)North State GamesNorth State Games
93 Magic Archers Jul 27, 2020 $7.99N/A (N/A)0 .. 20,0000%00:00 (00:00)Village People GamesVillage People Games
94 My Sail And My Sea Jun 30, 2020 $2.99N/A (N/A)0 .. 20,0000%00:00 (00:00)心田游戏(Heart Field Games)心田游戏(Heart Field Games)
95 Cannon Father Jun 23, 2020 $5.99N/A (N/A)0 .. 20,0000%00:00 (00:00)Two Scoop StudioTwo Scoop Studio
96 Takelshin Jun 19, 2020 $3.99N/A (N/A)0 .. 20,0000%00:00 (00:00)MINBEKKERMINBEKKER
97 Sea of Thieves Jun 3, 2020 $19.99N/A (N/A)5,000,000 .. 10,000,0004.85%07:55 (04:57)Rare LtdXbox Game Studios
98 Rum & Gun May 1, 2020 $4.99N/A (N/A)0 .. 20,0000%00:00 (00:00)BoringtonBorington
99 Hecaton Apr 5, 2020 $4.99N/A (N/A)0 .. 20,0000%00:00 (00:00)NWatch GamesNWatch Games
100 Pirates? Pirates! Mar 30, 2020 $3.99N/A (N/A)0 .. 20,0000%00:00 (00:00)Amrita StudioAmrita Studio
101 ONE PIECE: PIRATE WARRIORS 4 Mar 26, 2020 $14.99N/A (N/A)500,000 .. 1,000,0002.86%01:40 (00:33)Koei TecmoBANDAI NAMCO Entertainment
102 Coffin Rot Brewing Co. Mar 13, 2020 $5.09N/A (N/A)20,000 .. 50,0000%00:00 (00:00)Nooner Bear Studio LLCClique Games
103 Horizon's Gate Mar 9, 2020 $19.99N/A (N/A)50,000 .. 100,0000%00:00 (00:00)Rad CodexRad Codex
104 Paper Pirates Feb 28, 2020 $2.24N/A (N/A)0 .. 20,0000%00:00 (00:00)Iteration GamesIteration Games
105 Blackwake Feb 19, 2020 $4.99N/A (N/A)200,000 .. 500,0000%00:00 (00:00)Mastfire Studios Pty LtdMastfire Studios Pty Ltd
106 Void Destroyer 2 Feb 6, 2020 $9.99N/A (N/A)20,000 .. 50,0000%00:00 (00:00)Iteration 11Iteration 11
107 P1R4T3S Jan 31, 2020 $9.99N/A (N/A)0 .. 20,0000%00:00 (00:00)LLC Blini GamesLLC Blini Games
108 A Percent of a Pirate Jan 17, 2020 $0.99N/A (N/A)20,000 .. 50,0000%00:00 (00:00)LuminarkLuminark
109 Sea King Dec 24, 2019 $0.49N/A (N/A)0 .. 20,0000%00:00 (00:00)Interactive StoneInteractive Stone
110 SugarMill Dec 19, 2019 $19.99N/A (N/A)0 .. 20,0000%00:00 (00:00)Aatlantis CodeAatlantis Code
111 XO Dec 2, 2019 $19.99N/A (N/A)0 .. 20,0000%00:00 (00:00)Jumpdrive StudiosJumpdrive Studios
112 Of Ships & Scoundrels Nov 14, 2019 $14.99N/A (N/A)0 .. 20,0000%00:00 (00:00)Korion GamesKorion Games
113 HAM-MASTER Nov 8, 2019 $1.99N/A (N/A)0 .. 20,0000%00:00 (00:00)Maick PaimPequi studios
114 Abandon Ship Oct 22, 2019 $24.99N/A (N/A)50,000 .. 100,0000%00:00 (00:00)Fireblade SoftwareFireblade Software
115 Feral Blue Oct 22, 2019 $19.99N/A (N/A)0 .. 20,0000%00:00 (00:00)Snowbird GamesSnowbird Games
116 Mutiny Island Oct 18, 2019 $7.99N/A (N/A)50,000 .. 100,0000%00:00 (00:00)ElushisElushis Music & Gaming
117 Seacurity Breach Sep 20, 2019 $9.99N/A (N/A)0 .. 20,0000%00:00 (00:00)SoaphogSoaphog
118 Blackbeard the Cursed Jungle Sep 18, 2019 $0.99N/A (N/A)20,000 .. 50,0000%00:00 (00:00)Boogygames StudiosBoogygames Studios
119 Buoyancy Aug 30, 2019 $12.99N/A (N/A)20,000 .. 50,0000%00:00 (00:00)Devs on a BoatDevs on a Boat
120 Uncharted Tides: Port Royal Aug 29, 2019 $14.99N/A (N/A)0 .. 20,0000%00:00 (00:00)Cordelia GamesArtifex Mundi
121 Pirates Are BLANKing Awesome Jul 17, 2019 $1.99N/A (N/A)0 .. 20,0000%00:00 (00:00)Poorwill GamesPoorwill Games
122 Naval Action Jun 13, 2019 $19.99N/A (N/A)200,000 .. 500,0000%00:00 (00:00)Game-LabsGame-Labs
123 Giant Life Jun 7, 2019 $9.99N/A (N/A)0 .. 20,0000%00:00 (00:00)PatagoniartPatagoniart
124 Black Baron May 29, 2019 $10.99N/A (N/A)0 .. 20,0000%00:00 (00:00)toR StudiotoR Studio
125 Sail and Sacrifice May 23, 2019 $19.99N/A (N/A)0 .. 20,0000%00:00 (00:00)CAGE StudiosCAGE Studios
126 Ferret Scoundrels May 9, 2019 $19.99N/A (N/A)0 .. 20,0000%00:00 (00:00)Cryogenic EntertainmentCryogenic Entertainment
127 Privateers Apr 18, 2019 $9.99N/A (N/A)0 .. 20,0000%00:00 (00:00)Monster TreeMonster Tree
128 Sticks And Bones Mar 28, 2019 $5.99N/A (N/A)20,000 .. 50,0000%00:00 (00:00)Mohammad ArkobiMohammad Arkobi
129 Shipped Mar 28, 2019 $5.99N/A (N/A)20,000 .. 50,0000%00:00 (00:00)MajorariattoMajorariatto
130 ONE PIECE World Seeker Mar 14, 2019 $59.99N/A (N/A)200,000 .. 500,00011.76%01:05 (00:43)GANBARION Co., Ltd.BANDAI NAMCO Entertainment
131 Match Three Pirates! Heir to Davy Jones Feb 27, 2019 $9.99N/A (N/A)0 .. 20,0000%00:00 (00:00)Graphium StudioDenda Games
132 Block of Rum Feb 5, 2019 $1.99N/A (N/A)0 .. 20,0000%00:00 (00:00)Obi-WanyaObi-Wanya
133 Sea Birds: End of an Age Jan 1, 2019 $1.99N/A (N/A)0 .. 20,0000%00:00 (00:00)Kevin AdamsKevin Adams
134 ATLAS Dec 22, 2018 $29.99N/A (N/A)1,000,000 .. 2,000,0001.32%40:58 (13:39)Grapeshot Games, Instinct GamesGrapeshot Games
135 kraken's curse Dec 8, 2018 $2.99N/A (N/A)0 .. 20,0000%00:00 (00:00)Sokpop CollectiveSokpop Collective
136 Heart of Moon : The Mask of Seasons Dec 6, 2018 $2.69N/A (N/A)0 .. 20,0000%00:00 (00:00)UnikgameUnikware
137 Pirates of the Polygon Sea Nov 30, 2018 $8.99N/A (N/A)0 .. 20,0000%00:00 (00:00)Praxia EntertainmentPraxia Entertainment
138 Swords and Sandals Pirates Nov 30, 2018 $6.99N/A (N/A)0 .. 20,0000%00:00 (00:00)Whiskeybarrel StudioseGames.com
139 Pirate Island Rescue Sep 17, 2018 $1.99N/A (N/A)20,000 .. 50,0000%00:00 (00:00)Bad Logic StudiosBad Logic Studios
140 Ink Plane Sep 16, 2018 $0.99N/A (N/A)0 .. 20,0000%00:00 (00:00)Artur PetrovArtur Petrov
141 Salty Seabird Bay Sep 11, 2018 $5.99N/A (N/A)0 .. 20,0000%00:00 (00:00)ZealwindZealwind
142 Flynn and Freckles Sep 7, 2018 $9.99N/A (N/A)0 .. 20,0000%00:00 (00:00)Rookie Hero GamesRookie Hero Games
143 Factory pirates Aug 24, 2018 $0.99N/A (N/A)0 .. 20,0000%00:00 (00:00)WhackAKey GamesBig Black Bear
144 Space Captain McCallery - Episode 1: Crash Landing Jul 20, 2018 $4.99N/A (N/A)20,000 .. 50,0000%00:00 (00:00)Renegade Sector GamesRenegade Sector Games
145 Adventure Time: Pirates of the Enchiridion Jul 17, 2018 $24.99N/A (N/A)0 .. 20,0000%00:00 (00:00)Climax StudiosOutright Games Ltd.
146 SAS Jun 6, 2018 $14.99N/A (N/A)20,000 .. 50,0000%00:00 (00:00)True Illusion SoftwareTrue Illusion Software
147 Cursed Lands May 18, 2018 $24.99N/A (N/A)0 .. 20,0000%00:00 (00:00)Winter WolvesWinter Wolves
148 Virtual Pirate VR Jul 16, 2018 $9.99N/A (N/A)0 .. 20,0000%00:00 (00:00)MAMMOSSIX Co., Ltd.MAMMOSSIX Co., Ltd.
149 Pirate Code Apr 24, 2018 $14.99N/A (N/A)0 .. 20,0000%00:00 (00:00)Circuit HiveCircuit Hive
150 Don't Sink Apr 13, 2018 $9.99N/A (N/A)20,000 .. 50,0000%00:00 (00:00)Fern Nigro, Christopher Anselmo, Daniel MarquesStudio Eris
151 HYKEE - Episode 1: Underwater Apr 13, 2018 $0.99N/A (N/A)0 .. 20,0000%00:00 (00:00)NachoNacho
152 Levantera: Tale of The Winds Apr 2, 2018 $9.99N/A (N/A)0 .. 20,0000%00:00 (00:00)Lasso GamesLasso Games
153 The Pirate's Fate Mar 27, 2018 $19.99N/A (N/A)0 .. 20,0000%00:00 (00:00)T.F. Wright, VolkenfoxFoxWright Productions
154 Sea Dogs: Caribbean Tales Mar 15, 2018 $11.99N/A (N/A)0 .. 20,0000%00:00 (00:00)AkellaAkella
155 Salt Feb 6, 2018 $14.99N/A (N/A)50,000 .. 100,0000%00:00 (00:00)Lavaboots StudiosLavaboots Studios
156 VR Regatta - The Sailing Game Jan 30, 2018 $29.99N/A (N/A)500,000 .. 1,000,0000%00:00 (00:00)MarineVerseMarineVerse
157 Space Pirates And Zombies 2 Nov 7, 2017 $19.99N/A (N/A)200,000 .. 500,0000%00:00 (00:00)MinMax Games Ltd.MinMax Games Ltd.
158 Mutiny!! Oct 20, 2017 $9.99N/A (N/A)0 .. 20,0000%00:00 (00:00)LupiesoftLupiesoft, MangaGamer
159 Space Pirate Trainer Oct 12, 2017 $14.99N/A (N/A)200,000 .. 500,0000%00:00 (00:00)I-IllusionsI-Illusions
160 Pinball Wicked Oct 12, 2017 $9.99N/A (N/A)0 .. 20,0000%00:00 (00:00)FormslingersFormslingers
161 Captain vs Sky Pirates Oct 10, 2017 $2.99N/A (N/A)0 .. 20,0000%00:00 (00:00)Boogygames StudiosBoogygames Studios
162 Captain Firebeard and the Bay of Crows Oct 4, 2017 $9.99N/A (N/A)0 .. 20,0000%00:00 (00:00)Sapphire Dragon ProductionsSapphire Dragon Productions
163 战术狂想1(Chimera of Tactics 1) Sep 27, 2017 $0.99N/A (N/A)0 .. 20,0000%00:00 (00:00)自由愉悦小黄猫(Free pleasure little yellow cat)自由愉悦小黄猫(Free pleasure little yellow cat)
164 Battle of Frigates Sep 21, 2017 $0.5N/A (N/A)20,000 .. 50,0000%00:00 (00:00)Dmitriy Uvarov, Vyacheslav ShilikhinDroid Riot
165 The Caribbean Sail Sep 19, 2017 $14.99N/A (N/A)20,000 .. 50,0000%00:00 (00:00)Victorian ClambakeVictorian Clambake
166 Captain Backwater Sep 12, 2017 $6.99N/A (N/A)0 .. 20,0000%00:00 (00:00)IntermediawareIntermediaware
167 One Piece: Unlimited World Red - Deluxe Edition Aug 25, 2017 $39.99N/A (N/A)0 .. 20,0000%00:00 (00:00)GanbarionBANDAI NAMCO Entertainment
168 Cutthroat Gunboat Aug 11, 2017 $1.99N/A (N/A)0 .. 20,0000%00:00 (00:00)Minor FactionMinor Faction
169 The Zwuggels - A Beach Holiday Adventure for Kids Jul 20, 2017 $2.99N/A (N/A)0 .. 20,0000%00:00 (00:00)Ploosh GmbHPloosh GmbH
170 Robot Pirates Jun 9, 2017 $1.99N/A (N/A)0 .. 20,0000%00:00 (00:00)Tydecon GamesTydecon Games
171 Lone Pirate VR May 26, 2017 $0.99N/A (N/A)0 .. 20,0000%00:00 (00:00)b08b08
172 Landless May 10, 2017 $14.99N/A (N/A)0 .. 20,0000%00:00 (00:00)CodeBulletCodeBullet
173 Neighboring Islands Apr 30, 2017 $0.99N/A (N/A)50,000 .. 100,0000%00:00 (00:00)Angry gamesЛД [ЛетоДайджест]
174 Space Station Loma: OPERATIONS Mar 17, 2017 $13.99N/A (N/A)0 .. 20,0000%00:00 (00:00)SpielmannSpiel, bisonSpielmannSpiel
175 Winds Of Trade Feb 13, 2017 $11.99N/A (N/A)0 .. 20,0000%00:00 (00:00)Hermes InteractiveHermes Interactive
176 HoD: On open seas Jul 20, 2015 $0.99N/A (N/A)0 .. 20,0000%00:00 (00:00)Pirate goup mediaPirate group media
177 Heroes of the Seven Seas VR Oct 14, 2016 $6.99N/A (N/A)0 .. 20,0000%00:00 (00:00)Mirage Interactive, 北京魔视互动科技有限公司Mirage Interactive, 北京魔视互动科技有限公司
178 Smash Up Oct 12, 2016 $6.99N/A (N/A)20,000 .. 50,0000%00:00 (00:00)Nomad GamesNomad Games
179 Duke Grabowski, Mighty Swashbuckler Oct 6, 2016 $1.99N/A (N/A)20,000 .. 50,0000%00:00 (00:00)Venture Moon IndustriesAlliance Digital Media
180 VROOM: Galleon Sep 5, 2016 $6.99N/A (N/A)0 .. 20,0000%00:00 (00:00)VROOMVROOM
181 One Piece Burning Blood Sep 1, 2016 $49.99N/A (N/A)200,000 .. 500,0006.67%04:56 (03:17)Spike Chunsoft Co., Ltd.BANDAI NAMCO Entertainment
182 Archipelago Aug 17, 2016 $0.99N/A (N/A)0 .. 20,0000%00:00 (00:00)TortTort
183 The Last Leviathan Jun 22, 2016 $9.99N/A (N/A)50,000 .. 100,0000%00:00 (00:00)Super Punk GamesSuper Punk Games
184 V ARRR Jun 10, 2016 $9.99N/A (N/A)0 .. 20,0000%00:00 (00:00)Blackjard SoftworksBlackjard Softworks
185 Choice of the Pirate May 20, 2016 $3.99N/A (N/A)0 .. 20,0000%00:00 (00:00)Choice of GamesChoice of Games
186 Skyhook May 17, 2016 $4.99N/A (N/A)20,000 .. 50,0000%00:00 (00:00)Megastorm GamesMegastorm Games
187 Assassins vs Pirates May 10, 2016 $7.99N/A (N/A)0 .. 20,0000%00:00 (00:00)DEADBITDEADBIT
188 Pixel Survivors May 5, 2016 $3.99N/A (N/A)50,000 .. 100,0000%00:00 (00:00)PatagoniartPatagoniart
189 The Inner Sea Mar 30, 2016 $11.99N/A (N/A)0 .. 20,0000%00:00 (00:00)dsquaredsquare
190 Sea Dogs: To Each His Own - Pirate Open World RPG Dec 2012 $14.99N/A (N/A)200,000 .. 500,0000%00:00 (00:00)BlackMark StudioAkella, Valkyrie Initiative
191 Blood and Gold: Caribbean! Dec 10, 2015 $19.99N/A (N/A)50,000 .. 100,0000%00:00 (00:00)Snowbird GamesSnowbird Games
192 Astrox: Hostile Space Excavation Nov 30, 2015 $9.99N/A (N/A)20,000 .. 50,0000%00:00 (00:00)Jace MasulaJace Masula
193 Vendetta - Curse of Raven's Cry Nov 20, 2015 $29.99N/A (N/A)200,000 .. 500,0000%00:00 (00:00)Reality Pump StudiosTopWare Interactive, ACE
194 Caribbean Odyssey Nov 12, 2015 $9.99N/A (N/A)0 .. 20,0000%00:00 (00:00)Imran ArafatReality Gameware
195 Swords & Crossbones: An Epic Pirate Story Sep 30, 2015 $4.99N/A (N/A)0 .. 20,0000%00:00 (00:00)Epic Devs LLCEpic Devs LLC
196 Black Sails - The Ghost Ship Sep 17, 2015 $9.99N/A (N/A)50,000 .. 100,0000%00:00 (00:00)Deck13Deck13
197 Braveland Pirate Sep 15, 2015 $11.99N/A (N/A)50,000 .. 100,0000%00:00 (00:00)Tortuga TeamTortuga Team
198 One Piece Pirate Warriors 3 Aug 27, 2015 $5.99N/A (N/A)500,000 .. 1,000,0000%00:00 (00:00)KOEI TECMO GAMES CO., LTD.BANDAI NAMCO Entertainment
199 Pixel Piracy Jul 31, 2014 $9.99N/A (N/A)200,000 .. 500,0000%00:00 (00:00)Vitali Kirpu
200 Shantae and the Pirate's Curse Apr 23, 2015 $9.99N/A (N/A)100,000 .. 200,0000%00:00 (00:00)WayForwardWayForward
201 Pirate's Life Apr 17, 2015 $4.99N/A (N/A)0 .. 20,0000%00:00 (00:00)Team EyepatchNone
202 Distant Star: Revenant Fleet Apr 7, 2015 $9.99N/A (N/A)50,000 .. 100,0000%00:00 (00:00)Blazing GriffinBlazing Griffin
203 Hero of the Kingdom II Feb 20, 2015 $1.99N/A (N/A)100,000 .. 200,0000%00:00 (00:00)Lonely TroopsLonely Troops
204 Robinson Crusoe and the Cursed Pirates Feb 10, 2015 $9.99N/A (N/A)20,000 .. 50,0000%00:00 (00:00)MagicIndieMumboJumbo
205 Forsaken Isle Feb 6, 2015 $7.99N/A (N/A)20,000 .. 50,0000%00:00 (00:00)SmoodlezSmoodlez
206 Pirate Hell Nov 7, 2014 $5.99N/A (N/A)20,000 .. 50,0000%00:00 (00:00)Sascha HartlebSascha Hartleb
207 Assassin's Creed Freedom Cry Feb 25, 2014 $14.99N/A (N/A)200,000 .. 500,0000%00:00 (00:00)Ubisoft MontrealUbisoft
208 Dead Man's Draw Feb 6, 2014 $6.99N/A (N/A)50,000 .. 100,0000%00:00 (00:00)Stardock EntertainmentStardock Entertainment
209 Captain Morgane and the Golden Turtle Jan 3, 2014 $4.99N/A (N/A)20,000 .. 50,0000%00:00 (00:00)WizarBoxReef Entertainment
210 Nightmares from the Deep 2: The Siren`s Call Jul 24, 2013 N/AN/A (N/A)50,000 .. 100,0000%00:00 (00:00)Artifex MundiArtifex Mundi
211 Pirates vs Corsairs: Davy Jones's Gold May 23, 2013 $4.99N/A (N/A)20,000 .. 50,0000%00:00 (00:00)Little World StudioGames For All
212 Heileen 3: New Horizons Jul 17, 2014 $24.99N/A (N/A)0 .. 20,0000%00:00 (00:00)Winter WolvesWinter Wolves
213 Port Royale 3 May 4, 2012 $14.99N/A (N/A)200,000 .. 500,0000%00:00 (00:00)Gaming Minds StudiosKalypso Media Digital
214 Nightmares from the Deep: The Cursed Heart Apr 19, 2012 N/AN/A (N/A)100,000 .. 200,0000%00:00 (00:00)Artifex MundiArtifex Mundi
215 LEGO Pirates of the Caribbean: The Video Game Oct 6, 2014 $19.99N/A (N/A)200,000 .. 500,0000%00:00 (00:00)Traveller's TalesDisney
216 Woody Two-Legs: Attack of the Zombie Pirates Nov 2, 2010 $4.99N/A (N/A)20,000 .. 50,0000%00:00 (00:00)Nitro GamesNitro Games
217 Zombie Pirates Sep 1, 2010 $2.99N/A (N/A)0 .. 20,0000%00:00 (00:00)Dust Devil Studios Inc.Strategy First
218 Tropico Reloaded Jul 26, 2009 $6.99N/A (N/A)200,000 .. 500,0000%00:00 (00:00)PopTop Software, BreakAway Games, Frog City SoftwareKalypso Media Digital
219 Disney Pirates of the Caribbean: At Worlds End Oct 6, 2014 $19.99N/A (N/A)20,000 .. 50,0000%00:00 (00:00) Eurocom Entertainment SoftwareDisney
220 Disney's Treasure Planet: Battle of Procyon Oct 31, 2002 $9.99N/A (N/A)20,000 .. 50,0000%00:00 (00:00)Barking Dog StudiosDisney
221 Assassin’s Creed IV Black Flag $39.99N/A (N/A)5,000,000 .. 10,000,0001.45%01:37 (01:18)Ubisoft MontrealUbisoft
222 Salt 2: Shores of Gold Sep 20, 2022 $16.99N/A (N/A)50,000 .. 100,0000%00:00 (00:00)Lavaboots StudiosLavaboots Studios
223 Return to Monkey Island Sep 19, 2022 $24.99N/A (N/A)100,000 .. 200,00066.67%02:14 (03:08)Terrible ToyboxDevolver Digital
224 The Spanish Privateer Sep 16, 2022 $14.99N/A (N/A)20,000 .. 50,0000%00:00 (00:00)SinSisters StudiosSinSisters Studios
225 Plunder Panic Sep 16, 2022 $19.99N/A (N/A)0 .. 20,0000%00:00 (00:00)Will Winn GamesWill Winn Games
226 Catherine Ragnor - Blackbeards Fury Sep 14, 2022 $5.99N/A (N/A)0 .. 20,0000%00:00 (00:00)e-FunSoftHH-Games
227 Sail Aug 10, 2022 $14.99N/A (N/A)0 .. 20,0000%00:00 (00:00)Red Team 19, Continuum XRGarett cook
228 Fill and Cross Pirate Riddles 3 Aug 8, 2022 $0.49N/A (N/A)0 .. 20,0000%00:00 (00:00)Creobit8floor
229 Autonauts vs Piratebots Jul 28, 2022 $19.99N/A (N/A)20,000 .. 50,0000%00:00 (00:00)DenkiCurve Games
230 The Silent Sky Part I Jul 28, 2022 $13.99N/A (N/A)20,000 .. 50,0000%00:00 (00:00)KAPAKAPA
231 Captain Bones Jul 27, 2022 $19.99N/A (N/A)0 .. 20,0000%00:00 (00:00)Saygın KarahanWorld of Poly
232 Brain Syndrome VR Jul 18, 2022 $4.99N/A (N/A)50,000 .. 100,0000%00:00 (00:00)Derrick DavisonDerrick Davison
233 Warlordocracy Jul 16, 2022 $4.99N/A (N/A)0 .. 20,0000%00:00 (00:00)Brian Lancaster, Laughing Coyote SoftwareBrian Lancaster, Laughing Coyote Software
234 Privateer Escape Jun 26, 2022 $3.99N/A (N/A)0 .. 20,0000%00:00 (00:00)Mobile Game StudioMobile Game Studio
235 25°N 71°W Jun 20, 2022 $11.99N/A (N/A)0 .. 20,0000%00:00 (00:00)SE {} KSSE {} KS
236 Pirates Things Jun 15, 2022 $7.99N/A (N/A)0 .. 20,0000%00:00 (00:00)HotFoodGamesHotFoodGames
237 Polar Bear Riding A Ninja Jun 1, 2022 $6.99N/A (N/A)0 .. 20,0000%00:00 (00:00)Waily WailyWaily Waily
238 JumpBeard May 12, 2022 $9.99N/A (N/A)0 .. 20,0000%00:00 (00:00)RealPlayers ProductionRealPlayers Production
239 The Struggle of Combat May 6, 2022 $7.99N/A (N/A)0 .. 20,0000%00:00 (00:00)YrbiaxYrbiax
240 TIME TO HUNT May 6, 2022 N/AN/A (N/A)0 .. 20,0000%00:00 (00:00)Wuhan NetCiao Technology Co., LtdWuhan NetCiao Technology Co., Ltd
241 Void Marauders Mar 29, 2022 $11.99N/A (N/A)0 .. 20,0000%00:00 (00:00)AutarcaAutarca
242 Pixel Pirate Mar 18, 2022 $24.99N/A (N/A)0 .. 20,0000%00:00 (00:00)Stas Paty9mkinPiece Of Voxel
243 Pirate's Solitaire Mar 16, 2022 $4.99N/A (N/A)0 .. 20,0000%00:00 (00:00)Creobit8floor
244 Pompom Mar 14, 2022 $14.99N/A (N/A)20,000 .. 50,0000%00:00 (00:00)TOMO CAMPPID Games
245 Buccaneers! Mar 7, 2022 $17.99N/A (N/A)0 .. 20,0000%00:00 (00:00)Skyward DigitalValkyrie Initiative
246 Pirate's Gold Mar 1, 2022 $9.99N/A (N/A)20,000 .. 50,0000%00:00 (00:00)Jochen Heizmann, Emmanuel HennéAsylum Square
247 Behind Border Zone Feb 23, 2022 $0.49N/A (N/A)0 .. 20,0000%00:00 (00:00)SoerGameSoerGame
248 Helm or High Water Feb 17, 2022 $14.99N/A (N/A)0 .. 20,0000%00:00 (00:00)Jordan HobgoodJordan Hobgood
249 Shadow Madness Feb 15, 2022 $14.99N/A (N/A)0 .. 20,0000%00:00 (00:00)CravePiko Interactive LLC, Bleem!
250 Rise of the Third Power Feb 10, 2022 $19.99N/A (N/A)0 .. 20,0000%00:00 (00:00)Stegosoft GamesDANGEN Entertainment
251 Old Salt Jan 19, 2022 $14.99N/A (N/A)0 .. 20,0000%00:00 (00:00)Kneeshaw Developments, Never Board GamesKneeshaw Developments
252 Neko Ghost, Jump! Jan 11, 2022 $14.99N/A (N/A)0 .. 20,0000%00:00 (00:00)Burgos GamesBurgos Games
253 Crowalt: Traces of the Lost Colony Jan 6, 2022 $12.99N/A (N/A)0 .. 20,0000%00:00 (00:00)Madcraft StudiosGrabTheGames
254 Big Booty Adventures Jan 5, 2022 $8.99N/A (N/A)20,000 .. 50,0000%00:00 (00:00)NeVReal StudiosNeVReal Studios
255 Rust Raiders Dec 20, 2021 $4.99N/A (N/A)0 .. 20,0000%00:00 (00:00)Overlord Game StudioOverlord Game Studio
256 Istanbul Ship Simulator Dec 20, 2021 $3.99N/A (N/A)0 .. 20,0000%00:00 (00:00)Sevisen StudiosSevisen Studios
257 Match Three Pirates II Dec 16, 2021 $9.99N/A (N/A)0 .. 20,0000%00:00 (00:00)Graphium StudioDenda Games
258 Trails Of Gold Privateers Dec 16, 2021 $12.99N/A (N/A)0 .. 20,0000%00:00 (00:00)La Suite StudioLa Suite Studio, Plug In Digital
259 Trash Sailors Dec 16, 2021 $19.99N/A (N/A)20,000 .. 50,0000%00:00 (00:00)fluckyMachinetinyBuild
260 Cleo - a pirate's tale Dec 12, 2021 $14.99N/A (N/A)20,000 .. 50,0000%00:00 (00:00)Christoph SchultzGreycap Audiovisual Mediadesign UG
261 Cloud Escape Dec 12, 2021 $4.99N/A (N/A)0 .. 20,0000%00:00 (00:00)Andreas BaumAndreas Baum
262 Hero of the Kingdom: The Lost Tales 2 Nov 19, 2021 $6.99N/A (N/A)20,000 .. 50,0000%00:00 (00:00)Lonely TroopsLonely Troops
263 Coin Treasures Nov 8, 2021 FreeN/A (N/A)0 .. 20,0000%00:00 (00:00)BraincircusBraincircus
264 RagingFist Nov 4, 2021 $199.99N/A (N/A)0 .. 20,0000%00:00 (00:00)healthy gamehealthy game
265 Peachleaf Pirates Sep 27, 2021 $6.99N/A (N/A)0 .. 20,0000%00:00 (00:00)Dog Kiss StudioDigerati
266 The Chaser's Voyage Sep 17, 2021 $19.99N/A (N/A)0 .. 20,0000%00:00 (00:00)Bright at Midnight: A Game StudioBright at Midnight: A Game Studio
267 100 hidden cups Sep 15, 2021 $0.99N/A (N/A)0 .. 20,0000%00:00 (00:00)Anatoliy Loginovskikh, Igor ShalimovAnatoliy Loginovskikh
268 Table of Tales: The Crooked Crown Sep 14, 2021 $19.99N/A (N/A)0 .. 20,0000%00:00 (00:00)Tin Man Games, Zero One StudioTin Man Games
269 In Search of Fon Vitae Aug 30, 2021 $4.99N/A (N/A)0 .. 20,0000%00:00 (00:00)EarlgreyEarlgrey
270 A Winding Path Aug 26, 2021 $7.99N/A (N/A)0 .. 20,0000%00:00 (00:00)Three Eyed GamesThree Eyed Games
271 VR Pirates of the Caribbean Life Experience Aug 25, 2021 $4.99N/A (N/A)0 .. 20,0000%00:00 (00:00)William at OxfordWilliam at Oxford
272 Hidden Shapes Black Skull - Jigsaw Puzzle Game Aug 11, 2021 $1.99N/A (N/A)0 .. 20,0000%00:00 (00:00)YAW StudiosYAW Studios
273 Seafarers Aug 1, 2021 $4.99N/A (N/A)0 .. 20,0000%00:00 (00:00)Egghead Interactive LLC.Egghead Interactive LLC.
274 Man of the World Aug 1, 2021 $2.99N/A (N/A)0 .. 20,0000%00:00 (00:00)redduckstudioredduckstudio
275 Historic Fighters Jul 30, 2021 N/AN/A (N/A)50,000 .. 100,0000%00:00 (00:00)QVIK GAMEZQVIK GAMEZ
276 Furious Seas Jul 18, 2021 $19.99N/A (N/A)0 .. 20,0000%00:00 (00:00)Future ImmersiveFuture Immersive
277 Pugmire: Treasure of the Sea Dogs Jul 15, 2021 $3.99N/A (N/A)0 .. 20,0000%00:00 (00:00)Choice of GamesChoice of Games
278 Walkabout Mini Golf VR Jul 15, 2021 $14.99N/A (N/A)100,000 .. 200,0000%00:00 (00:00)Mighty CoconutMighty Coconut
279 Salt and Sails Jul 1, 2021 $9.99N/A (N/A)0 .. 20,0000%00:00 (00:00)DiaMMaxPiece Of Voxel
280 Antiprism Jun 21, 2021 $17.99N/A (N/A)0 .. 20,0000%00:00 (00:00)Zero FunZero Fun
281 Super Sunny Island Jun 17, 2021 $4.99N/A (N/A)0 .. 20,0000%00:00 (00:00)lightUPlightUP
282 Build Em' Faster Jun 7, 2021 $5.99N/A (N/A)0 .. 20,0000%00:00 (00:00)CrooLabCrooLab
283 Loot Slider Jun 1, 2021 $7.99N/A (N/A)0 .. 20,0000%00:00 (00:00)Retrofied GamesRetrofied Games
284 Girls' civilization 2 Jun 1, 2021 $12.99N/A (N/A)0 .. 20,0000%00:00 (00:00)MoondolinoMoondolino
285 I Am the Captain Now May 27, 2021 $0.89N/A (N/A)0 .. 20,0000%00:00 (00:00)North Lake GamesNorth Lake Games
286 King of Seas May 25, 2021 $24.99N/A (N/A)20,000 .. 50,0000%00:00 (00:00)3DCloudsTeam17
287 Crafty May 23, 2021 $18.99N/A (N/A)0 .. 20,0000%00:00 (00:00)Wonder FactoryWonder Factory
288 Fish Person Shooter May 20, 2021 $12.99N/A (N/A)0 .. 20,0000%00:00 (00:00)8AH8AH
289 BARBAROS May 5, 2021 $3.99N/A (N/A)0 .. 20,0000%00:00 (00:00)Indie DeveloperIndie Developer
290 Golden Force Apr 22, 2021 $2.99N/A (N/A)0 .. 20,0000%00:00 (00:00)Storybird StudioNo Gravity Games
291 Country Discoverer Apr 16, 2021 $7.99N/A (N/A)0 .. 20,0000%00:00 (00:00)goatrope gamesgoatrope games
292 Lair Hockey Apr 12, 2021 $9.99N/A (N/A)0 .. 20,0000%00:00 (00:00)Never Written GamesNever Written Games
Overview

Pirates

Games with this tag: 292
Average userscore: N/A%
Average metascore: 75.14%
Average playtime: 08:38
Total copies owned: 40,760,000
Average price: $12.03
Help

Owners: Estimated number of people owning this game. The number might be way too small for new releases and sometimes way too big for games that had free weekend event recently. Read more on About page.

Playtime: Average hours played in total per person that have actually launched this game since March 2009. This time is calculated for the whole lifetime, not for the particular year.

Average score: Average users and metacritic score for all games with this score assigned.

Average playtime: Average lifetime playtime for all games where this data is available.

Games in this genre: Self-explaining - number of games with this tag. Only inculdes games with sales data available.

Total copies owned: Refers to total copies of games with this tag acquired by users for the lifetime. Includes copies sold, downloaded for free and given out.

This number might be too small for recently released games or too big for games that had a free weekend in the last couple of months.

Graphs

Login required.

Please register or log in to see this information.

Login required.

Please register or log in to see this information.